Terminal Aerodrome Forecast
Issued by NWS

Home | Current Version | Previous Version | Text Only | Print | Product List | Glossary Off
Versions: 1 2 3 4 5 6 7 8 9 10 11 12 13 14 15 16 17 18

000
FTUS42 KMHX 230529 AAA
TAFPGV
TAF AMD
KPGV 230529Z 2305/2406 00000KT P6SM SKC
      TEMPO 2306/2309 4SM BR
     FM231300 05007KT P6SM SCT050
     FM232300 09005KT P6SM SKC
      AMD LTD TO CLD VIS AND WIND=

USA.gov is the U.S. government's official web portal to all federal, state and local government web resources and services.